sensor_id;sensor_type;location;lat;lon;timestamp;P1;durP1;ratioP1;P2;durP2;ratioP2
2119;SDS011;1066;52.540;13.420;2024-03-08T00:02:22;21.93;;;17.47;;
2119;SDS011;1066;52.540;13.420;2024-03-08T00:04:48;21.97;;;16.83;;
2119;SDS011;1066;52.540;13.420;2024-03-08T00:07:13;20.80;;;16.03;;
2119;SDS011;1066;52.540;13.420;2024-03-08T00:09:39;20.83;;;16.83;;
2119;SDS011;1066;52.540;13.420;2024-03-08T00:12:04;23.70;;;17.40;;
2119;SDS011;1066;52.540;13.420;2024-03-08T00:14:30;23.73;;;18.53;;
2119;SDS011;1066;52.540;13.420;2024-03-08T00:16:55;21.27;;;17.17;;
2119;SDS011;1066;52.540;13.420;2024-03-08T00:19:20;21.40;;;17.00;;
2119;SDS011;1066;52.540;13.420;2024-03-08T00:21:45;19.70;;;16.87;;
2119;SDS011;1066;52.540;13.420;2024-03-08T00:24:11;19.53;;;17.00;;
2119;SDS011;1066;52.540;13.420;2024-03-08T00:26:37;24.23;;;16.67;;
2119;SDS011;1066;52.540;13.420;2024-03-08T00:29:02;25.80;;;18.37;;
2119;SDS011;1066;52.540;13.420;2024-03-08T00:31:28;21.00;;;16.87;;
2119;SDS011;1066;52.540;13.420;2024-03-08T00:33:55;23.73;;;17.23;;
2119;SDS011;1066;52.540;13.420;2024-03-08T00:36:21;20.23;;;16.67;;
2119;SDS011;1066;52.540;13.420;2024-03-08T00:38:47;18.40;;;16.33;;
2119;SDS011;1066;52.540;13.420;2024-03-08T00:41:12;23.47;;;17.97;;
2119;SDS011;1066;52.540;13.420;2024-03-08T00:43:38;19.80;;;15.70;;
2119;SDS011;1066;52.540;13.420;2024-03-08T00:46:04;19.50;;;17.40;;
2119;SDS011;1066;52.540;13.420;2024-03-08T00:48:29;21.00;;;17.03;;
2119;SDS011;1066;52.540;13.420;2024-03-08T00:50:56;20.87;;;15.50;;
2119;SDS011;1066;52.540;13.420;2024-03-08T00:53:21;23.20;;;16.80;;
2119;SDS011;1066;52.540;13.420;2024-03-08T00:55:49;20.87;;;16.50;;
2119;SDS011;1066;52.540;13.420;2024-03-08T00:58:15;21.03;;;16.23;;
2119;SDS011;1066;52.540;13.420;2024-03-08T01:00:40;21.90;;;16.27;;
2119;SDS011;1066;52.540;13.420;2024-03-08T01:03:05;17.40;;;14.93;;
2119;SDS011;1066;52.540;13.420;2024-03-08T01:05:31;20.77;;;16.77;;
2119;SDS011;1066;52.540;13.420;2024-03-08T01:07:57;18.83;;;16.03;;
2119;SDS011;1066;52.540;13.420;2024-03-08T01:10:22;19.53;;;16.03;;
2119;SDS011;1066;52.540;13.420;2024-03-08T01:12:47;22.57;;;16.37;;
2119;SDS011;1066;52.540;13.420;2024-03-08T01:15:13;18.50;;;15.37;;
2119;SDS011;1066;52.540;13.420;2024-03-08T01:17:38;19.00;;;16.47;;
2119;SDS011;1066;52.540;13.420;2024-03-08T01:20:04;17.83;;;15.40;;
2119;SDS011;1066;52.540;13.420;2024-03-08T01:22:30;23.00;;;17.17;;
2119;SDS011;1066;52.540;13.420;2024-03-08T01:24:56;20.63;;;16.90;;
2119;SDS011;1066;52.540;13.420;2024-03-08T01:27:22;19.63;;;16.63;;
2119;SDS011;1066;52.540;13.420;2024-03-08T01:29:47;20.40;;;14.87;;
2119;SDS011;1066;52.540;13.420;2024-03-08T01:32:13;19.73;;;15.90;;
2119;SDS011;1066;52.540;13.420;2024-03-08T01:34:38;18.50;;;15.40;;
2119;SDS011;1066;52.540;13.420;2024-03-08T01:37:03;21.77;;;16.97;;
2119;SDS011;1066;52.540;13.420;2024-03-08T01:39:29;21.90;;;16.13;;
2119;SDS011;1066;52.540;13.420;2024-03-08T01:41:54;21.43;;;16.90;;
2119;SDS011;1066;52.540;13.420;2024-03-08T01:44:20;19.93;;;15.90;;
2119;SDS011;1066;52.540;13.420;2024-03-08T01:46:45;20.83;;;17.47;;
2119;SDS011;1066;52.540;13.420;2024-03-08T01:49:11;23.43;;;16.87;;
2119;SDS011;1066;52.540;13.420;2024-03-08T01:51:37;23.17;;;16.43;;
2119;SDS011;1066;52.540;13.420;2024-03-08T01:54:05;23.67;;;16.67;;
2119;SDS011;1066;52.540;13.420;2024-03-08T01:56:30;20.87;;;16.93;;
2119;SDS011;1066;52.540;13.420;2024-03-08T01:58:56;22.27;;;16.63;;
2119;SDS011;1066;52.540;13.420;2024-03-08T02:01:22;22.70;;;17.67;;
2119;SDS011;1066;52.540;13.420;2024-03-08T02:03:49;20.83;;;17.17;;
2119;SDS011;1066;52.540;13.420;2024-03-08T02:06:14;20.20;;;17.30;;
2119;SDS011;1066;52.540;13.420;2024-03-08T02:08:44;23.93;;;17.43;;
2119;SDS011;1066;52.540;13.420;2024-03-08T02:11:10;23.30;;;16.80;;
2119;SDS011;1066;52.540;13.420;2024-03-08T02:13:36;19.70;;;17.00;;
2119;SDS011;1066;52.540;13.420;2024-03-08T02:16:01;22.50;;;17.57;;
2119;SDS011;1066;52.540;13.420;2024-03-08T02:18:28;21.00;;;16.70;;
2119;SDS011;1066;52.540;13.420;2024-03-08T02:20:58;20.63;;;17.10;;
2119;SDS011;1066;52.540;13.420;2024-03-08T02:23:24;22.40;;;17.07;;
2119;SDS011;1066;52.540;13.420;2024-03-08T02:25:50;20.40;;;16.03;;
2119;SDS011;1066;52.540;13.420;2024-03-08T02:28:16;20.13;;;17.37;;
2119;SDS011;1066;52.540;13.420;2024-03-08T02:30:43;24.83;;;17.53;;
2119;SDS011;1066;52.540;13.420;2024-03-08T02:33:09;20.70;;;17.43;;
2119;SDS011;1066;52.540;13.420;2024-03-08T02:35:35;21.47;;;19.00;;
2119;SDS011;1066;52.540;13.420;2024-03-08T02:38:01;24.93;;;17.50;;
2119;SDS011;1066;52.540;13.420;2024-03-08T02:40:28;19.07;;;17.07;;
2119;SDS011;1066;52.540;13.420;2024-03-08T02:42:53;21.50;;;17.40;;
2119;SDS011;1066;52.540;13.420;2024-03-08T02:45:19;23.27;;;17.33;;
2119;SDS011;1066;52.540;13.420;2024-03-08T02:47:44;25.43;;;19.30;;
2119;SDS011;1066;52.540;13.420;2024-03-08T02:50:10;22.70;;;18.80;;
2119;SDS011;1066;52.540;13.420;2024-03-08T02:52:36;23.63;;;18.10;;
2119;SDS011;1066;52.540;13.420;2024-03-08T02:55:02;25.13;;;18.60;;
2119;SDS011;1066;52.540;13.420;2024-03-08T02:57:28;23.53;;;19.00;;
2119;SDS011;1066;52.540;13.420;2024-03-08T02:59:53;23.97;;;17.00;;
2119;SDS011;1066;52.540;13.420;2024-03-08T03:02:19;24.87;;;17.67;;
2119;SDS011;1066;52.540;13.420;2024-03-08T03:04:44;22.20;;;18.40;;
2119;SDS011;1066;52.540;13.420;2024-03-08T03:07:09;21.57;;;17.37;;
2119;SDS011;1066;52.540;13.420;2024-03-08T03:09:36;23.17;;;19.60;;
2119;SDS011;1066;52.540;13.420;2024-03-08T03:12:01;23.20;;;18.30;;
2119;SDS011;1066;52.540;13.420;2024-03-08T03:14:27;23.50;;;19.27;;
2119;SDS011;1066;52.540;13.420;2024-03-08T03:16:53;21.07;;;16.83;;
2119;SDS011;1066;52.540;13.420;2024-03-08T03:19:19;25.03;;;18.00;;
2119;SDS011;1066;52.540;13.420;2024-03-08T03:21:45;21.67;;;18.43;;
2119;SDS011;1066;52.540;13.420;2024-03-08T03:24:10;23.60;;;18.73;;
2119;SDS011;1066;52.540;13.420;2024-03-08T03:26:41;22.63;;;18.20;;
2119;SDS011;1066;52.540;13.420;2024-03-08T03:29:06;23.37;;;18.90;;
2119;SDS011;1066;52.540;13.420;2024-03-08T03:31:34;22.90;;;18.00;;
2119;SDS011;1066;52.540;13.420;2024-03-08T03:33:59;24.87;;;17.40;;
2119;SDS011;1066;52.540;13.420;2024-03-08T03:36:28;25.07;;;19.53;;
2119;SDS011;1066;52.540;13.420;2024-03-08T03:38:54;24.47;;;19.10;;
2119;SDS011;1066;52.540;13.420;2024-03-08T03:41:30;22.20;;;17.40;;
2119;SDS011;1066;52.540;13.420;2024-03-08T03:43:55;28.00;;;20.60;;
2119;SDS011;1066;52.540;13.420;2024-03-08T03:46:20;23.07;;;18.53;;
2119;SDS011;1066;52.540;13.420;2024-03-08T03:48:46;26.27;;;19.60;;
2119;SDS011;1066;52.540;13.420;2024-03-08T03:51:11;21.30;;;17.77;;
2119;SDS011;1066;52.540;13.420;2024-03-08T03:53:37;23.83;;;18.50;;
2119;SDS011;1066;52.540;13.420;2024-03-08T03:56:02;24.07;;;18.10;;
2119;SDS011;1066;52.540;13.420;2024-03-08T03:58:32;27.27;;;18.30;;
2119;SDS011;1066;52.540;13.420;2024-03-08T04:00:57;25.50;;;18.90;;
2119;SDS011;1066;52.540;13.420;2024-03-08T04:03:23;24.40;;;18.50;;
2119;SDS011;1066;52.540;13.420;2024-03-08T04:05:48;24.90;;;18.80;;
2119;SDS011;1066;52.540;13.420;2024-03-08T04:08:17;21.33;;;17.40;;
2119;SDS011;1066;52.540;13.420;2024-03-08T04:10:43;24.90;;;18.63;;
2119;SDS011;1066;52.540;13.420;2024-03-08T04:13:08;24.10;;;20.07;;
2119;SDS011;1066;52.540;13.420;2024-03-08T04:15:34;25.20;;;18.70;;
2119;SDS011;1066;52.540;13.420;2024-03-08T04:18:00;24.83;;;19.33;;
2119;SDS011;1066;52.540;13.420;2024-03-08T04:20:25;25.90;;;20.70;;
2119;SDS011;1066;52.540;13.420;2024-03-08T04:22:51;24.07;;;18.83;;
2119;SDS011;1066;52.540;13.420;2024-03-08T04:25:16;22.77;;;18.80;;
2119;SDS011;1066;52.540;13.420;2024-03-08T04:27:43;24.23;;;18.77;;
2119;SDS011;1066;52.540;13.420;2024-03-08T04:30:09;28.17;;;19.63;;
2119;SDS011;1066;52.540;13.420;2024-03-08T04:32:35;26.73;;;19.53;;
2119;SDS011;1066;52.540;13.420;2024-03-08T04:35:00;24.60;;;18.10;;
2119;SDS011;1066;52.540;13.420;2024-03-08T04:37:29;22.80;;;19.83;;
2119;SDS011;1066;52.540;13.420;2024-03-08T04:39:55;27.83;;;20.53;;
2119;SDS011;1066;52.540;13.420;2024-03-08T04:42:20;31.37;;;22.27;;
2119;SDS011;1066;52.540;13.420;2024-03-08T04:44:45;26.53;;;19.57;;
2119;SDS011;1066;52.540;13.420;2024-03-08T04:47:11;26.37;;;18.73;;
2119;SDS011;1066;52.540;13.420;2024-03-08T04:49:36;24.90;;;18.37;;
2119;SDS011;1066;52.540;13.420;2024-03-08T04:52:02;28.37;;;21.13;;
2119;SDS011;1066;52.540;13.420;2024-03-08T04:54:28;26.07;;;19.60;;
2119;SDS011;1066;52.540;13.420;2024-03-08T04:56:56;29.97;;;20.83;;
2119;SDS011;1066;52.540;13.420;2024-03-08T04:59:22;27.33;;;19.07;;
2119;SDS011;1066;52.540;13.420;2024-03-08T05:01:47;23.30;;;20.10;;
2119;SDS011;1066;52.540;13.420;2024-03-08T05:04:13;25.57;;;20.87;;
2119;SDS011;1066;52.540;13.420;2024-03-08T05:06:39;21.13;;;18.03;;
2119;SDS011;1066;52.540;13.420;2024-03-08T05:09:06;24.83;;;20.33;;
2119;SDS011;1066;52.540;13.420;2024-03-08T05:11:45;24.83;;;19.17;;
2119;SDS011;1066;52.540;13.420;2024-03-08T05:14:11;26.93;;;21.63;;
2119;SDS011;1066;52.540;13.420;2024-03-08T05:16:41;25.03;;;20.00;;
2119;SDS011;1066;52.540;13.420;2024-03-08T05:19:07;23.70;;;21.17;;
2119;SDS011;1066;52.540;13.420;2024-03-08T05:21:32;22.90;;;17.73;;
2119;SDS011;1066;52.540;13.420;2024-03-08T05:23:58;28.00;;;20.37;;
2119;SDS011;1066;52.540;13.420;2024-03-08T05:26:23;26.53;;;20.80;;
2119;SDS011;1066;52.540;13.420;2024-03-08T05:28:48;28.17;;;20.43;;
2119;SDS011;1066;52.540;13.420;2024-03-08T05:31:20;27.27;;;20.30;;
2119;SDS011;1066;52.540;13.420;2024-03-08T05:33:49;29.10;;;19.60;;
2119;SDS011;1066;52.540;13.420;2024-03-08T05:36:14;24.43;;;17.83;;
2119;SDS011;1066;52.540;13.420;2024-03-08T05:38:42;24.37;;;18.47;;
2119;SDS011;1066;52.540;13.420;2024-03-08T05:41:08;28.07;;;21.47;;
2119;SDS011;1066;52.540;13.420;2024-03-08T05:43:37;25.53;;;19.63;;
2119;SDS011;1066;52.540;13.420;2024-03-08T05:46:03;28.97;;;21.60;;
2119;SDS011;1066;52.540;13.420;2024-03-08T05:48:29;23.50;;;20.63;;
2119;SDS011;1066;52.540;13.420;2024-03-08T05:50:57;25.30;;;19.23;;
2119;SDS011;1066;52.540;13.420;2024-03-08T05:53:22;25.80;;;22.47;;
2119;SDS011;1066;52.540;13.420;2024-03-08T05:55:47;28.20;;;21.53;;
2119;SDS011;1066;52.540;13.420;2024-03-08T05:58:14;26.77;;;21.07;;
2119;SDS011;1066;52.540;13.420;2024-03-08T06:00:39;31.03;;;21.30;;
2119;SDS011;1066;52.540;13.420;2024-03-08T06:03:05;25.43;;;20.70;;
2119;SDS011;1066;52.540;13.420;2024-03-08T06:05:31;25.80;;;20.17;;
2119;SDS011;1066;52.540;13.420;2024-03-08T06:07:56;28.33;;;20.20;;
2119;SDS011;1066;52.540;13.420;2024-03-08T06:10:22;30.10;;;20.50;;
2119;SDS011;1066;52.540;13.420;2024-03-08T06:12:47;26.63;;;19.77;;
2119;SDS011;1066;52.540;13.420;2024-03-08T06:15:16;29.90;;;21.53;;
2119;SDS011;1066;52.540;13.420;2024-03-08T06:17:41;25.23;;;19.03;;
2119;SDS011;1066;52.540;13.420;2024-03-08T06:20:08;26.10;;;21.40;;
2119;SDS011;1066;52.540;13.420;2024-03-08T06:22:37;26.00;;;20.83;;
2119;SDS011;1066;52.540;13.420;2024-03-08T06:25:09;26.87;;;20.80;;
2119;SDS011;1066;52.540;13.420;2024-03-08T06:27:41;26.47;;;21.30;;
2119;SDS011;1066;52.540;13.420;2024-03-08T06:30:07;27.77;;;21.43;;
2119;SDS011;1066;52.540;13.420;2024-03-08T06:32:34;25.60;;;21.50;;
2119;SDS011;1066;52.540;13.420;2024-03-08T06:35:03;24.10;;;19.70;;
2119;SDS011;1066;52.540;13.420;2024-03-08T06:37:33;26.47;;;19.73;;
2119;SDS011;1066;52.540;13.420;2024-03-08T06:39:58;26.33;;;21.43;;
2119;SDS011;1066;52.540;13.420;2024-03-08T06:42:25;34.30;;;21.63;;
2119;SDS011;1066;52.540;13.420;2024-03-08T06:44:51;30.97;;;21.20;;
2119;SDS011;1066;52.540;13.420;2024-03-08T06:47:20;26.73;;;20.83;;
2119;SDS011;1066;52.540;13.420;2024-03-08T06:49:46;29.27;;;23.27;;
2119;SDS011;1066;52.540;13.420;2024-03-08T06:52:11;27.90;;;21.23;;
2119;SDS011;1066;52.540;13.420;2024-03-08T06:54:37;27.27;;;22.27;;
2119;SDS011;1066;52.540;13.420;2024-03-08T06:57:03;26.07;;;21.93;;
2119;SDS011;1066;52.540;13.420;2024-03-08T06:59:30;27.07;;;20.93;;
2119;SDS011;1066;52.540;13.420;2024-03-08T07:01:56;29.60;;;21.73;;
2119;SDS011;1066;52.540;13.420;2024-03-08T07:04:21;29.40;;;23.27;;
2119;SDS011;1066;52.540;13.420;2024-03-08T07:06:49;29.50;;;21.67;;
2119;SDS011;1066;52.540;13.420;2024-03-08T07:09:15;26.23;;;21.03;;
2119;SDS011;1066;52.540;13.420;2024-03-08T07:11:43;27.40;;;22.07;;
2119;SDS011;1066;52.540;13.420;2024-03-08T07:14:12;32.40;;;22.83;;
2119;SDS011;1066;52.540;13.420;2024-03-08T07:16:40;33.73;;;23.03;;
2119;SDS011;1066;52.540;13.420;2024-03-08T07:19:06;26.13;;;21.40;;
2119;SDS011;1066;52.540;13.420;2024-03-08T07:21:32;33.17;;;21.93;;
2119;SDS011;1066;52.540;13.420;2024-03-08T07:23:57;27.33;;;20.90;;
2119;SDS011;1066;52.540;13.420;2024-03-08T07:26:25;31.13;;;20.73;;
2119;SDS011;1066;52.540;13.420;2024-03-08T07:28:50;29.43;;;21.40;;
2119;SDS011;1066;52.540;13.420;2024-03-08T07:31:16;27.50;;;19.97;;
2119;SDS011;1066;52.540;13.420;2024-03-08T07:33:50;25.60;;;20.97;;
2119;SDS011;1066;52.540;13.420;2024-03-08T07:36:15;27.03;;;19.47;;
2119;SDS011;1066;52.540;13.420;2024-03-08T07:38:41;26.93;;;20.60;;
2119;SDS011;1066;52.540;13.420;2024-03-08T07:41:06;28.27;;;22.30;;
2119;SDS011;1066;52.540;13.420;2024-03-08T07:43:31;31.30;;;25.63;;
2119;SDS011;1066;52.540;13.420;2024-03-08T07:45:57;39.67;;;29.03;;
2119;SDS011;1066;52.540;13.420;2024-03-08T07:48:23;31.40;;;27.70;;
2119;SDS011;1066;52.540;13.420;2024-03-08T07:50:48;33.23;;;27.37;;
2119;SDS011;1066;52.540;13.420;2024-03-08T07:53:14;36.43;;;28.40;;
2119;SDS011;1066;52.540;13.420;2024-03-08T07:55:40;27.67;;;24.67;;
2119;SDS011;1066;52.540;13.420;2024-03-08T07:58:07;26.60;;;21.33;;
2119;SDS011;1066;52.540;13.420;2024-03-08T08:00:35;27.47;;;20.80;;
2119;SDS011;1066;52.540;13.420;2024-03-08T08:03:02;27.93;;;21.03;;
2119;SDS011;1066;52.540;13.420;2024-03-08T08:05:28;25.43;;;19.93;;
2119;SDS011;1066;52.540;13.420;2024-03-08T08:07:53;23.90;;;18.43;;
2119;SDS011;1066;52.540;13.420;2024-03-08T08:10:18;24.53;;;20.67;;
2119;SDS011;1066;52.540;13.420;2024-03-08T08:12:46;26.73;;;20.03;;
2119;SDS011;1066;52.540;13.420;2024-03-08T08:15:13;29.57;;;21.70;;
2119;SDS011;1066;52.540;13.420;2024-03-08T08:17:40;25.20;;;21.00;;
2119;SDS011;1066;52.540;13.420;2024-03-08T08:20:07;27.77;;;21.90;;
2119;SDS011;1066;52.540;13.420;2024-03-08T08:22:33;27.17;;;22.57;;
2119;SDS011;1066;52.540;13.420;2024-03-08T08:24:58;24.97;;;21.47;;
2119;SDS011;1066;52.540;13.420;2024-03-08T08:27:24;27.17;;;21.87;;
2119;SDS011;1066;52.540;13.420;2024-03-08T08:29:51;25.47;;;20.77;;
2119;SDS011;1066;52.540;13.420;2024-03-08T08:32:16;27.07;;;22.60;;
2119;SDS011;1066;52.540;13.420;2024-03-08T08:34:43;29.73;;;21.20;;
2119;SDS011;1066;52.540;13.420;2024-03-08T08:37:09;23.10;;;19.83;;
2119;SDS011;1066;52.540;13.420;2024-03-08T08:39:34;24.73;;;18.23;;
2119;SDS011;1066;52.540;13.420;2024-03-08T08:42:00;27.47;;;19.63;;
2119;SDS011;1066;52.540;13.420;2024-03-08T08:44:25;22.50;;;17.80;;
2119;SDS011;1066;52.540;13.420;2024-03-08T08:46:50;25.20;;;18.83;;
2119;SDS011;1066;52.540;13.420;2024-03-08T08:49:19;29.80;;;20.47;;
2119;SDS011;1066;52.540;13.420;2024-03-08T08:51:51;22.73;;;18.77;;
2119;SDS011;1066;52.540;13.420;2024-03-08T08:54:17;24.33;;;17.73;;
2119;SDS011;1066;52.540;13.420;2024-03-08T08:56:43;27.50;;;20.20;;
2119;SDS011;1066;52.540;13.420;2024-03-08T08:59:12;22.43;;;18.30;;
2119;SDS011;1066;52.540;13.420;2024-03-08T09:01:44;26.83;;;19.43;;
2119;SDS011;1066;52.540;13.420;2024-03-08T09:04:12;23.77;;;18.67;;
2119;SDS011;1066;52.540;13.420;2024-03-08T09:06:37;25.13;;;18.47;;
2119;SDS011;1066;52.540;13.420;2024-03-08T09:09:03;22.03;;;17.70;;
2119;SDS011;1066;52.540;13.420;2024-03-08T09:11:30;24.10;;;19.43;;
2119;SDS011;1066;52.540;13.420;2024-03-08T09:13:55;29.53;;;20.77;;
2119;SDS011;1066;52.540;13.420;2024-03-08T09:16:20;33.20;;;25.80;;
2119;SDS011;1066;52.540;13.420;2024-03-08T09:18:46;21.73;;;18.80;;
2119;SDS011;1066;52.540;13.420;2024-03-08T09:21:13;26.43;;;19.70;;
2119;SDS011;1066;52.540;13.420;2024-03-08T09:23:39;23.07;;;18.23;;
2119;SDS011;1066;52.540;13.420;2024-03-08T09:26:05;24.30;;;18.40;;
2119;SDS011;1066;52.540;13.420;2024-03-08T09:28:34;22.93;;;18.50;;
2119;SDS011;1066;52.540;13.420;2024-03-08T09:30:59;23.87;;;17.17;;
2119;SDS011;1066;52.540;13.420;2024-03-08T09:33:26;29.27;;;22.27;;
2119;SDS011;1066;52.540;13.420;2024-03-08T09:35:54;31.33;;;20.17;;
2119;SDS011;1066;52.540;13.420;2024-03-08T09:38:19;31.27;;;24.53;;
2119;SDS011;1066;52.540;13.420;2024-03-08T09:40:45;23.37;;;19.13;;
2119;SDS011;1066;52.540;13.420;2024-03-08T09:43:11;22.67;;;19.20;;
2119;SDS011;1066;52.540;13.420;2024-03-08T09:45:39;27.60;;;19.07;;
2119;SDS011;1066;52.540;13.420;2024-03-08T09:48:09;26.70;;;20.10;;
2119;SDS011;1066;52.540;13.420;2024-03-08T09:50:41;23.53;;;19.57;;
2119;SDS011;1066;52.540;13.420;2024-03-08T09:53:07;24.73;;;19.07;;
2119;SDS011;1066;52.540;13.420;2024-03-08T09:55:36;25.10;;;18.43;;
2119;SDS011;1066;52.540;13.420;2024-03-08T09:58:02;23.13;;;16.90;;
2119;SDS011;1066;52.540;13.420;2024-03-08T10:00:42;20.33;;;17.60;;
2119;SDS011;1066;52.540;13.420;2024-03-08T10:03:08;23.83;;;18.87;;
2119;SDS011;1066;52.540;13.420;2024-03-08T10:05:34;22.40;;;18.17;;
2119;SDS011;1066;52.540;13.420;2024-03-08T10:07:59;23.37;;;16.87;;
2119;SDS011;1066;52.540;13.420;2024-03-08T10:10:25;21.30;;;17.90;;
2119;SDS011;1066;52.540;13.420;2024-03-08T10:12:51;24.87;;;16.77;;
2119;SDS011;1066;52.540;13.420;2024-03-08T10:15:16;19.60;;;16.73;;
2119;SDS011;1066;52.540;13.420;2024-03-08T10:17:42;22.20;;;17.83;;
2119;SDS011;1066;52.540;13.420;2024-03-08T10:20:17;22.13;;;17.20;;
2119;SDS011;1066;52.540;13.420;2024-03-08T10:22:43;24.10;;;18.90;;
2119;SDS011;1066;52.540;13.420;2024-03-08T10:25:10;21.80;;;18.33;;
2119;SDS011;1066;52.540;13.420;2024-03-08T10:27:38;20.80;;;17.17;;
2119;SDS011;1066;52.540;13.420;2024-03-08T10:30:10;20.30;;;15.60;;
2119;SDS011;1066;52.540;13.420;2024-03-08T10:32:37;26.37;;;19.70;;
2119;SDS011;1066;52.540;13.420;2024-03-08T10:35:03;20.43;;;16.60;;
2119;SDS011;1066;52.540;13.420;2024-03-08T10:37:28;21.23;;;16.83;;
2119;SDS011;1066;52.540;13.420;2024-03-08T10:40:03;19.90;;;15.60;;
2119;SDS011;1066;52.540;13.420;2024-03-08T10:42:36;21.60;;;16.33;;
2119;SDS011;1066;52.540;13.420;2024-03-08T10:45:06;22.20;;;15.37;;
2119;SDS011;1066;52.540;13.420;2024-03-08T10:48:00;20.10;;;15.53;;
2119;SDS011;1066;52.540;13.420;2024-03-08T10:50:43;22.40;;;16.70;;
2119;SDS011;1066;52.540;13.420;2024-03-08T10:53:11;17.30;;;13.60;;
2119;SDS011;1066;52.540;13.420;2024-03-08T10:55:39;21.77;;;15.93;;
2119;SDS011;1066;52.540;13.420;2024-03-08T10:58:09;20.83;;;16.57;;
2119;SDS011;1066;52.540;13.420;2024-03-08T11:00:35;19.43;;;15.90;;
2119;SDS011;1066;52.540;13.420;2024-03-08T11:03:00;19.77;;;16.80;;
2119;SDS011;1066;52.540;13.420;2024-03-08T11:08:03;16.40;;;12.80;;
2119;SDS011;1066;52.540;13.420;2024-03-08T11:10:53;17.87;;;14.20;;
2119;SDS011;1066;52.540;13.420;2024-03-08T11:16:01;21.67;;;15.40;;
2119;SDS011;1066;52.540;13.420;2024-03-08T11:21:56;18.17;;;15.10;;
2119;SDS011;1066;52.540;13.420;2024-03-08T11:24:39;17.50;;;13.80;;
2119;SDS011;1066;52.540;13.420;2024-03-08T11:27:07;18.43;;;15.30;;
2119;SDS011;1066;52.540;13.420;2024-03-08T11:29:35;18.53;;;14.27;;
2119;SDS011;1066;52.540;13.420;2024-03-08T11:34:34;20.50;;;15.17;;
2119;SDS011;1066;52.540;13.420;2024-03-08T11:37:00;20.67;;;14.37;;
2119;SDS011;1066;52.540;13.420;2024-03-08T11:39:25;17.80;;;15.10;;
2119;SDS011;1066;52.540;13.420;2024-03-08T11:41:51;16.80;;;14.13;;
2119;SDS011;1066;52.540;13.420;2024-03-08T11:44:17;19.80;;;15.23;;
2119;SDS011;1066;52.540;13.420;2024-03-08T11:46:45;17.73;;;14.67;;
2119;SDS011;1066;52.540;13.420;2024-03-08T11:49:14;19.23;;;14.73;;
2119;SDS011;1066;52.540;13.420;2024-03-08T11:51:39;19.87;;;15.27;;
2119;SDS011;1066;52.540;13.420;2024-03-08T11:54:05;17.23;;;15.23;;
2119;SDS011;1066;52.540;13.420;2024-03-08T11:56:31;16.90;;;14.17;;
2119;SDS011;1066;52.540;13.420;2024-03-08T11:58:57;18.10;;;13.97;;
2119;SDS011;1066;52.540;13.420;2024-03-08T12:01:22;16.73;;;14.87;;
2119;SDS011;1066;52.540;13.420;2024-03-08T12:03:57;18.93;;;15.10;;
2119;SDS011;1066;52.540;13.420;2024-03-08T12:06:26;17.10;;;14.87;;
2119;SDS011;1066;52.540;13.420;2024-03-08T12:08:52;19.10;;;14.87;;
2119;SDS011;1066;52.540;13.420;2024-03-08T12:11:18;16.63;;;13.73;;
2119;SDS011;1066;52.540;13.420;2024-03-08T12:13:48;18.53;;;14.07;;
2119;SDS011;1066;52.540;13.420;2024-03-08T12:16:15;17.80;;;14.83;;
2119;SDS011;1066;52.540;13.420;2024-03-08T12:18:43;19.70;;;14.43;;
2119;SDS011;1066;52.540;13.420;2024-03-08T12:21:10;18.83;;;15.00;;
2119;SDS011;1066;52.540;13.420;2024-03-08T12:23:39;14.97;;;13.47;;
2119;SDS011;1066;52.540;13.420;2024-03-08T12:26:14;16.70;;;13.47;;
2119;SDS011;1066;52.540;13.420;2024-03-08T12:28:49;18.40;;;13.77;;
2119;SDS011;1066;52.540;13.420;2024-03-08T12:31:15;16.20;;;14.50;;
2119;SDS011;1066;52.540;13.420;2024-03-08T12:33:54;17.00;;;13.07;;
2119;SDS011;1066;52.540;13.420;2024-03-08T12:36:24;16.60;;;13.40;;
2119;SDS011;1066;52.540;13.420;2024-03-08T12:38:52;15.13;;;13.53;;
2119;SDS011;1066;52.540;13.420;2024-03-08T12:41:19;14.83;;;12.23;;
2119;SDS011;1066;52.540;13.420;2024-03-08T12:43:46;20.80;;;14.50;;
2119;SDS011;1066;52.540;13.420;2024-03-08T12:46:15;16.67;;;14.87;;
2119;SDS011;1066;52.540;13.420;2024-03-08T12:48:41;18.23;;;15.27;;
2119;SDS011;1066;52.540;13.420;2024-03-08T12:51:07;20.87;;;15.30;;
2119;SDS011;1066;52.540;13.420;2024-03-08T12:53:32;18.43;;;14.33;;
2119;SDS011;1066;52.540;13.420;2024-03-08T12:55:58;15.10;;;13.60;;
2119;SDS011;1066;52.540;13.420;2024-03-08T12:58:23;18.73;;;13.93;;
2119;SDS011;1066;52.540;13.420;2024-03-08T13:00:49;17.47;;;14.90;;
2119;SDS011;1066;52.540;13.420;2024-03-08T13:03:14;19.37;;;15.00;;
2119;SDS011;1066;52.540;13.420;2024-03-08T13:05:39;14.60;;;13.10;;
2119;SDS011;1066;52.540;13.420;2024-03-08T13:08:06;16.27;;;13.07;;
2119;SDS011;1066;52.540;13.420;2024-03-08T13:10:37;16.63;;;13.30;;
2119;SDS011;1066;52.540;13.420;2024-03-08T13:13:08;15.07;;;13.47;;
2119;SDS011;1066;52.540;13.420;2024-03-08T13:15:34;14.37;;;12.83;;
2119;SDS011;1066;52.540;13.420;2024-03-08T13:18:00;19.40;;;13.83;;
2119;SDS011;1066;52.540;13.420;2024-03-08T13:20:26;16.30;;;13.70;;
2119;SDS011;1066;52.540;13.420;2024-03-08T13:22:53;18.93;;;15.47;;
2119;SDS011;1066;52.540;13.420;2024-03-08T13:25:18;17.80;;;14.03;;
2119;SDS011;1066;52.540;13.420;2024-03-08T13:27:45;16.47;;;13.80;;
2119;SDS011;1066;52.540;13.420;2024-03-08T13:30:11;19.33;;;13.37;;
2119;SDS011;1066;52.540;13.420;2024-03-08T13:32:43;15.00;;;12.87;;
2119;SDS011;1066;52.540;13.420;2024-03-08T13:35:12;15.53;;;13.93;;
2119;SDS011;1066;52.540;13.420;2024-03-08T13:37:41;15.07;;;13.47;;
2119;SDS011;1066;52.540;13.420;2024-03-08T13:40:07;17.00;;;13.83;;
2119;SDS011;1066;52.540;13.420;2024-03-08T13:42:36;16.87;;;14.20;;
2119;SDS011;1066;52.540;13.420;2024-03-08T13:45:03;17.20;;;13.70;;
2119;SDS011;1066;52.540;13.420;2024-03-08T13:47:34;16.20;;;13.67;;
2119;SDS011;1066;52.540;13.420;2024-03-08T13:49:59;17.70;;;13.37;;
2119;SDS011;1066;52.540;13.420;2024-03-08T13:52:25;16.57;;;13.73;;
2119;SDS011;1066;52.540;13.420;2024-03-08T13:54:54;17.03;;;13.47;;
2119;SDS011;1066;52.540;13.420;2024-03-08T13:57:19;16.07;;;14.37;;
2119;SDS011;1066;52.540;13.420;2024-03-08T13:59:45;16.07;;;13.23;;
2119;SDS011;1066;52.540;13.420;2024-03-08T14:02:10;18.10;;;15.47;;
2119;SDS011;1066;52.540;13.420;2024-03-08T14:04:38;18.30;;;16.33;;
2119;SDS011;1066;52.540;13.420;2024-03-08T14:07:06;18.90;;;16.07;;
2119;SDS011;1066;52.540;13.420;2024-03-08T14:09:33;20.57;;;16.30;;
2119;SDS011;1066;52.540;13.420;2024-03-08T14:12:02;17.20;;;14.67;;
2119;SDS011;1066;52.540;13.420;2024-03-08T14:14:32;17.47;;;14.60;;
2119;SDS011;1066;52.540;13.420;2024-03-08T14:16:59;17.90;;;13.97;;
2119;SDS011;1066;52.540;13.420;2024-03-08T14:19:24;17.37;;;15.57;;
2119;SDS011;1066;52.540;13.420;2024-03-08T14:21:49;17.17;;;15.30;;
2119;SDS011;1066;52.540;13.420;2024-03-08T14:24:18;16.67;;;14.33;;
2119;SDS011;1066;52.540;13.420;2024-03-08T14:26:43;20.20;;;17.23;;
2119;SDS011;1066;52.540;13.420;2024-03-08T14:29:12;19.50;;;15.30;;
2119;SDS011;1066;52.540;13.420;2024-03-08T14:31:40;18.90;;;16.20;;
2119;SDS011;1066;52.540;13.420;2024-03-08T14:34:06;16.17;;;13.57;;
2119;SDS011;1066;52.540;13.420;2024-03-08T14:36:32;17.73;;;15.37;;
2119;SDS011;1066;52.540;13.420;2024-03-08T14:38:57;17.60;;;15.30;;
2119;SDS011;1066;52.540;13.420;2024-03-08T14:41:23;19.83;;;15.07;;
2119;SDS011;1066;52.540;13.420;2024-03-08T14:43:48;16.40;;;14.07;;